This is the latest recevied weather packets stored in our database for station/object WD0REW. If no packets are shown the sender has not sent any weather packets the latest 10 day(s).
| Time | Temp. | Humidity | Pressure | Rain* | Wind** | Luminosity | Snow |
|---|---|---|---|---|---|---|---|
| 1777214572 | 20.56° C | 65% | 1012.3 hPa | 0 mm | - | 154 W/m² | - |
| 1777214268 | 20.56° C | 64% | 1012.4 hPa | 0 mm | - | 182 W/m² | - |
| 1777213966 | 21.11° C | 64% | 1012.5 hPa | 0 mm | - | 202 W/m² | - |
| 1777213661 | 21.67° C | 62% | 1012.5 hPa | 0 mm | - | 187 W/m² | - |
| 1777213357 | 21.67° C | 63% | 1012.2 hPa | 0 mm | - | 374 W/m² | - |
| 1777213055 | 21.67° C | 64% | 1012.4 hPa | 0 mm | - | 383 W/m² | - |
| 1777212752 | 21.11° C | 65% | 1012.3 hPa | 0 mm | - | 422 W/m² | - |
| 1777212447 | 21.11° C | 66% | 1012.7 hPa | 0 mm | - | 393 W/m² | - |
| 1777212142 | 20.56° C | 68% | 1012.4 hPa | 0 mm | - | 345 W/m² | - |
| 1777211838 | 20.56° C | 67% | 1012.5 hPa | 0 mm | - | 304 W/m² | - |
| 1777211536 | 20° C | 70% | 1012.5 hPa | 0 mm | - | 290 W/m² | - |
| 1777211232 | 19.44° C | 73% | 1012.5 hPa | 0 mm | - | 284 W/m² | - |
| 1777210930 | 19.44° C | 71% | 1012.7 hPa | 0 mm | - | 259 W/m² | - |
| 1777210629 | 19.44° C | 73% | 1012.5 hPa | 0 mm | - | 206 W/m² | - |
| 1777210326 | 19.44° C | 73% | 1012.6 hPa | 0 mm | - | 175 W/m² | - |
| 1777210023 | 19.44° C | 72% | 1012.6 hPa | 0 mm | - | 212 W/m² | - |
| 1777209722 | 18.89° C | 74% | 1012.4 hPa | 0 mm | - | 227 W/m² | - |
| 1777209418 | 18.89° C | 74% | 1012.5 hPa | 0 mm | - | 168 W/m² | - |
| 1777209115 | 18.89° C | 75% | 1012.6 hPa | 0 mm | - | 171 W/m² | - |
| 1777208811 | 18.33° C | 77% | 1012.5 hPa | 0 mm | - | 153 W/m² | - |
| 1777208508 | 17.78° C | 78% | 1012.4 hPa | 0 mm | - | 124 W/m² | - |
| 1777208204 | 17.78° C | 80% | 1012.3 hPa | 0 mm | - | 52 W/m² | - |
| 1777207900 | 17.22° C | 80% | 1012.3 hPa | 0 mm | - | 43 W/m² | - |
| 1777207600 | 17.22° C | 81% | 1012.3 hPa | 0 mm | - | 43 W/m² | - |
| 1777207296 | 16.67° C | 82% | 1012 hPa | 0 mm | - | 55 W/m² | - |
* Rain latest hour (hover to see other rain measurements)
** Current wind speed in m/s (hover to see current wind gust speed)